Audubon, Iowa
Current Conditions -  °F | °C
As of 6:35 PM on Friday 31 Oct 2014 (Local Time) from KADU Reporting Station
Clear Clear  
Wind Chill: 34°   Ceiling: Unl
Heat Index: 34°   Visibility: 10mi
Dew Point: 16°   Wind: 3mph
Humidity: 48%   Direction: 360°N
Pressure: 30.47"   Gusts: NA
Location:  41.72°N, 94.93°W
Report Text: KADU 312335Z AUTO 36003KT 10SM CLR 01/M09 A3047 RMK AO2
Loading
Personal Weather Stations






























Interactive Weather Map
Tropical Storm Tracking
New forecast layout! Learn more

10-Day Weather Forecast

Advertisements
Track Severe Weather on mobile